Time;durP1;ratioP1;P1;durP2;ratioP2;P2;SDS_P1;SDS_P2;PMS_P1;PMS_P2;Temp;Humidity;BMP_temperature;BMP_pressure;BME280_temperature;BME280_humidity;BME280_pressure;Samples;Min_cycle;Max_cycle;Signal;HPM_P1;HPM_P2
2024/01/03 00:00:48;;;;;;;0.30;0.10;;;9.80;99.90;;;;;;5042010;28;20227;-76
2024/01/03 00:03:16;;;;;;;0.38;0.10;;;9.70;99.90;;;;;;5061349;28;20033;-79
2024/01/03 00:05:43;;;;;;;0.77;0.10;;;9.70;99.90;;;;;;5045270;28;20319;-76
2024/01/03 00:08:20;;;;;;;0.38;0.13;;;9.60;99.90;;;;;;5042245;28;20108;-76
2024/01/03 00:10:53;;;;;;;0.65;0.20;;;9.70;99.90;;;;;;5043005;28;20037;-77
2024/01/03 00:13:37;;;;;;;0.45;0.10;;;9.70;99.90;;;;;;5043747;28;20319;-78
2024/01/03 00:16:09;;;;;;;0.95;0.20;;;9.60;99.90;;;;;;5043822;28;20083;-77
2024/01/03 00:18:51;;;;;;;1.75;0.13;;;9.60;99.90;;;;;;5043083;28;20034;-77
2024/01/03 00:21:25;;;;;;;0.77;0.20;;;9.60;99.90;;;;;;5072625;28;20025;-75
2024/01/03 00:24:08;;;;;;;0.88;0.20;;;9.50;99.90;;;;;;5062479;28;20348;-77
2024/01/03 00:26:35;;;;;;;0.52;0.10;;;9.50;99.90;;;;;;5058939;28;20033;-76
2024/01/03 00:29:03;;;;;;;1.00;0.20;;;9.50;99.90;;;;;;5062565;28;20053;-78
2024/01/03 00:31:44;;;;;;;1.85;0.30;;;9.60;99.90;;;;;;5062065;28;20025;-76
2024/01/03 00:34:33;;;;;;;0.82;0.30;;;9.70;99.90;;;;;;5062075;28;20041;-76
2024/01/03 00:36:59;;;;;;;1.23;0.20;;;9.60;99.90;;;;;;5061251;28;20342;-76
2024/01/03 00:39:43;;;;;;;1.38;0.20;;;9.70;99.90;;;;;;5061640;28;20361;-77
2024/01/03 00:42:09;;;;;;;3.42;0.50;;;9.90;99.90;;;;;;5043014;28;20033;-76
2024/01/03 00:44:34;;;;;;;3.80;0.47;;;9.90;99.90;;;;;;5042216;28;20367;-75
2024/01/03 00:47:01;;;;;;;2.45;0.30;;;10.00;99.90;;;;;;5043162;28;20068;-76
2024/01/03 00:49:26;;;;;;;1.80;0.30;;;10.10;99.90;;;;;;5042120;28;20040;-77
2024/01/03 00:51:54;;;;;;;2.38;0.40;;;10.10;99.90;;;;;;5043005;28;20037;-76
2024/01/03 00:54:20;;;;;;;1.70;0.37;;;10.20;99.90;;;;;;5041868;28;20096;-77
2024/01/03 00:56:47;;;;;;;2.60;0.30;;;10.20;99.90;;;;;;5042641;28;20084;-76
2024/01/03 00:59:13;;;;;;;2.25;0.30;;;10.30;99.90;;;;;;5041982;28;20185;-77
2024/01/03 01:01:40;;;;;;;1.45;0.32;;;10.30;99.90;;;;;;5045572;28;20033;-75
2024/01/03 01:04:07;;;;;;;2.70;0.40;;;10.30;99.90;;;;;;5061777;28;20303;-75
2024/01/03 01:06:34;;;;;;;2.60;0.50;;;10.20;99.90;;;;;;5062006;28;20033;-75
2024/01/03 01:09:03;;;;;;;2.78;0.40;;;10.30;99.90;;;;;;5062378;28;20043;-74
2024/01/03 01:11:30;;;;;;;2.35;0.40;;;10.30;99.90;;;;;;5062249;28;20086;-74
2024/01/03 01:13:55;;;;;;;2.20;0.43;;;10.30;99.90;;;;;;5043661;28;20204;-77
2024/01/03 01:16:21;;;;;;;2.25;0.40;;;10.30;99.90;;;;;;5042496;28;20021;-76
2024/01/03 01:18:47;;;;;;;3.38;0.40;;;10.30;99.90;;;;;;5042389;28;20373;-77
2024/01/03 01:21:12;;;;;;;1.98;0.30;;;10.20;99.90;;;;;;5041289;28;20259;-77
2024/01/03 01:23:42;;;;;;;1.58;0.50;;;10.20;99.90;;;;;;5040865;28;20068;-75
2024/01/03 01:26:11;;;;;;;2.72;0.43;;;10.20;99.90;;;;;;5025095;28;20029;-75
2024/01/03 01:28:37;;;;;;;1.80;0.30;;;10.10;99.90;;;;;;5042067;28;20101;-76
2024/01/03 01:31:03;;;;;;;2.40;0.50;;;10.10;99.90;;;;;;5059398;28;20029;-77
2024/01/03 01:33:29;;;;;;;2.35;0.30;;;10.00;99.90;;;;;;5061508;28;20079;-77
2024/01/03 01:35:54;;;;;;;1.70;0.30;;;10.00;99.90;;;;;;5062320;28;20032;-77
2024/01/03 01:38:20;;;;;;;2.63;0.30;;;9.90;99.90;;;;;;5061495;28;20040;-77
2024/01/03 01:40:48;;;;;;;1.95;0.40;;;9.90;99.90;;;;;;5060632;28;20184;-77
2024/01/03 01:43:14;;;;;;;1.13;0.25;;;9.90;99.90;;;;;;5062290;28;20250;-77
2024/01/03 01:45:40;;;;;;;4.00;0.52;;;9.90;99.90;;;;;;5054757;28;20040;-78
2024/01/03 01:48:07;;;;;;;2.13;0.38;;;10.00;99.90;;;;;;5042213;28;20215;-76
2024/01/03 01:50:35;;;;;;;3.08;0.50;;;10.00;99.90;;;;;;5040718;28;20128;-75
2024/01/03 01:53:01;;;;;;;1.92;0.35;;;10.00;99.90;;;;;;5042585;28;20029;-78
2024/01/03 01:55:27;;;;;;;3.50;0.43;;;10.10;99.90;;;;;;5042728;28;20029;-76
2024/01/03 01:57:53;;;;;;;1.95;0.30;;;10.10;99.90;;;;;;5057550;28;20045;-76
2024/01/03 02:00:19;;;;;;;2.95;0.50;;;10.10;99.90;;;;;;5041060;28;20029;-78
2024/01/03 02:02:46;;;;;;;5.05;0.50;;;10.10;99.90;;;;;;5049248;28;20021;-77
2024/01/03 02:05:13;;;;;;;1.20;0.30;;;10.10;99.90;;;;;;5044392;28;20044;-77
2024/01/03 02:07:39;;;;;;;1.88;0.35;;;10.10;99.90;;;;;;5062981;28;20040;-77
2024/01/03 02:10:05;;;;;;;2.00;0.40;;;10.10;99.90;;;;;;5065121;28;20100;-76
2024/01/03 02:12:31;;;;;;;1.55;0.22;;;10.10;99.90;;;;;;5064923;28;20021;-77
2024/01/03 02:14:57;;;;;;;1.58;0.20;;;10.00;99.90;;;;;;5064844;28;20024;-77
2024/01/03 02:17:23;;;;;;;0.35;0.10;;;9.90;99.90;;;;;;5063621;28;20021;-77
2024/01/03 02:19:50;;;;;;;1.30;0.17;;;9.90;99.90;;;;;;5045132;28;20018;-77
2024/01/03 02:22:16;;;;;;;2.05;0.30;;;9.80;99.90;;;;;;5045674;28;20040;-77
2024/01/03 02:24:43;;;;;;;0.60;0.13;;;9.80;99.90;;;;;;5027857;28;20044;-76
2024/01/03 02:27:09;;;;;;;1.08;0.20;;;9.70;99.90;;;;;;5028311;28;20025;-77
2024/01/03 02:29:35;;;;;;;0.35;0.10;;;9.70;99.90;;;;;;5044027;28;20034;-76
2024/01/03 02:32:00;;;;;;;0.50;0.15;;;9.60;99.90;;;;;;5044675;28;20017;-77
2024/01/03 02:34:26;;;;;;;0.60;0.13;;;9.60;99.90;;;;;;5028083;28;20032;-76
2024/01/03 02:36:53;;;;;;;0.98;0.20;;;9.50;99.90;;;;;;5044002;28;20035;-77
2024/01/03 02:39:19;;;;;;;0.28;0.03;;;9.50;99.90;;;;;;5044632;28;20296;-76
2024/01/03 02:41:45;;;;;;;1.00;0.10;;;9.40;99.90;;;;;;5043681;28;20085;-76
2024/01/03 02:44:11;;;;;;;0.88;0.10;;;9.40;99.90;;;;;;5044369;28;20343;-75
2024/01/03 02:46:36;;;;;;;0.70;0.10;;;9.50;99.90;;;;;;5043275;28;20247;-75
2024/01/03 02:49:02;;;;;;;0.88;0.20;;;9.50;99.90;;;;;;5043972;28;20038;-75
2024/01/03 02:51:28;;;;;;;0.75;0.00;;;9.60;99.90;;;;;;5045162;28;20033;-76
2024/01/03 02:53:53;;;;;;;1.35;0.10;;;9.60;99.90;;;;;;5044134;28;20026;-74
2024/01/03 02:56:19;;;;;;;0.65;0.10;;;9.50;99.90;;;;;;5045267;28;20056;-75
2024/01/03 02:58:45;;;;;;;1.10;0.20;;;9.20;99.90;;;;;;5044833;28;20339;-78
2024/01/03 03:01:14;;;;;;;0.20;0.10;;;8.90;99.90;;;;;;5046314;28;20119;-78
2024/01/03 03:03:40;;;;;;;0.28;0.10;;;8.80;99.90;;;;;;5063755;28;20059;-79
2024/01/03 03:06:09;;;;;;;0.52;0.20;;;8.70;99.90;;;;;;5064043;28;20041;-77
2024/01/03 03:08:35;;;;;;;1.67;0.20;;;8.80;99.90;;;;;;5064645;28;20028;-77
2024/01/03 03:11:02;;;;;;;1.35;0.30;;;8.90;99.90;;;;;;5050774;28;20075;-78
2024/01/03 03:13:28;;;;;;;0.45;0.10;;;8.90;99.90;;;;;;5045184;28;20037;-77
2024/01/03 03:15:54;;;;;;;1.20;0.10;;;8.80;99.90;;;;;;5044425;28;20338;-77
2024/01/03 03:18:20;;;;;;;0.95;0.10;;;8.80;99.90;;;;;;5045098;28;20048;-76
2024/01/03 03:20:45;;;;;;;1.23;0.10;;;8.80;99.90;;;;;;5042929;28;20244;-76
2024/01/03 03:23:14;;;;;;;0.90;0.20;;;8.80;99.90;;;;;;5043545;28;20018;-77
2024/01/03 03:25:40;;;;;;;1.27;0.20;;;8.70;99.90;;;;;;5043925;28;20025;-75
2024/01/03 03:28:07;;;;;;;1.10;0.20;;;8.70;99.90;;;;;;5043070;28;20088;-78
2024/01/03 03:30:35;;;;;;;1.40;0.40;;;8.70;99.90;;;;;;5059702;28;20056;-78
2024/01/03 03:33:01;;;;;;;0.87;0.20;;;8.70;99.90;;;;;;5043821;28;20029;-77
2024/01/03 03:35:26;;;;;;;1.33;0.22;;;8.70;99.90;;;;;;5060021;28;20432;-78
2024/01/03 03:37:52;;;;;;;1.52;0.20;;;8.80;99.90;;;;;;5044163;28;20052;-77
2024/01/03 03:40:18;;;;;;;2.35;0.28;;;8.80;99.90;;;;;;5060213;28;20374;-76
2024/01/03 03:42:47;;;;;;;1.27;0.30;;;8.70;99.90;;;;;;5026512;28;20048;-77
2024/01/03 03:45:13;;;;;;;3.70;0.30;;;8.70;99.90;;;;;;5052008;28;20250;-75
2024/01/03 03:47:38;;;;;;;1.55;0.28;;;8.80;99.90;;;;;;5063637;28;20057;-76
2024/01/03 03:50:04;;;;;;;2.53;0.40;;;8.80;99.90;;;;;;5064218;28;20024;-76
2024/01/03 03:52:30;;;;;;;1.30;0.30;;;8.80;99.90;;;;;;5064043;28;20044;-76
2024/01/03 03:54:56;;;;;;;1.60;0.50;;;8.90;99.90;;;;;;5063615;28;20025;-76
2024/01/03 03:57:21;;;;;;;1.20;0.30;;;8.90;99.90;;;;;;5064145;28;20056;-76
2024/01/03 03:59:47;;;;;;;1.38;0.65;;;8.90;99.90;;;;;;5078666;28;20282;-76
2024/01/03 04:02:13;;;;;;;1.30;0.28;;;8.90;99.90;;;;;;5052397;28;20228;-77
2024/01/03 04:04:39;;;;;;;1.85;0.50;;;8.90;99.90;;;;;;5043202;28;20025;-76
2024/01/03 04:07:04;;;;;;;1.63;0.50;;;8.80;99.90;;;;;;5044214;28;20025;-76
2024/01/03 04:09:30;;;;;;;1.75;0.60;;;8.80;99.90;;;;;;5042774;28;20050;-76
2024/01/03 04:11:55;;;;;;;3.63;0.40;;;8.70;99.90;;;;;;5043659;28;20030;-78
2024/01/03 04:14:21;;;;;;;1.80;0.40;;;8.70;99.90;;;;;;5044197;28;20021;-77
2024/01/03 04:16:47;;;;;;;1.23;0.50;;;8.70;99.90;;;;;;5043482;28;20102;-77
2024/01/03 04:19:12;;;;;;;1.27;0.20;;;8.70;99.90;;;;;;5043847;28;20120;-77
2024/01/03 04:21:38;;;;;;;1.67;0.47;;;8.70;99.90;;;;;;5043507;28;20028;-77
2024/01/03 04:24:04;;;;;;;3.17;0.43;;;8.70;99.90;;;;;;5043894;28;20052;-75
2024/01/03 04:26:30;;;;;;;1.55;0.30;;;8.70;99.90;;;;;;5042517;28;20308;-78
2024/01/03 04:28:55;;;;;;;2.95;0.40;;;8.60;99.90;;;;;;5041617;28;20030;-78
2024/01/03 04:31:21;;;;;;;4.30;0.50;;;8.70;99.90;;;;;;5043371;28;20101;-77
2024/01/03 04:33:47;;;;;;;1.58;0.35;;;8.70;99.90;;;;;;5042837;28;20022;-78
2024/01/03 04:36:13;;;;;;;2.85;0.45;;;8.80;99.90;;;;;;5041986;28;20029;-76
2024/01/03 04:38:38;;;;;;;2.75;0.30;;;8.90;99.90;;;;;;5041741;28;20276;-76
2024/01/03 04:41:04;;;;;;;3.08;0.40;;;8.90;99.90;;;;;;5042117;28;20037;-77
2024/01/03 04:43:30;;;;;;;2.47;0.43;;;8.90;99.90;;;;;;5043215;28;20017;-76
2024/01/03 04:45:55;;;;;;;1.80;0.40;;;9.00;99.90;;;;;;5042875;28;20079;-78
2024/01/03 04:48:21;;;;;;;1.88;0.40;;;8.90;99.90;;;;;;5043381;28;20101;-78
2024/01/03 04:50:47;;;;;;;2.95;0.60;;;8.90;99.90;;;;;;5042890;28;20017;-78
2024/01/03 04:53:12;;;;;;;3.78;0.43;;;8.80;99.90;;;;;;5042150;28;20026;-77
2024/01/03 04:55:38;;;;;;;4.18;0.52;;;8.90;99.90;;;;;;5042684;28;20029;-77
2024/01/03 04:58:04;;;;;;;3.17;0.60;;;9.00;99.90;;;;;;5058533;28;20068;-77
2024/01/03 05:00:30;;;;;;;3.67;0.52;;;9.00;99.90;;;;;;5043094;28;20048;-77
2024/01/03 05:02:56;;;;;;;2.47;0.50;;;8.80;99.90;;;;;;5056210;28;20028;-77
2024/01/03 05:05:22;;;;;;;3.05;0.50;;;8.60;99.90;;;;;;5061748;28;20359;-78
2024/01/03 05:07:48;;;;;;;1.90;0.40;;;8.50;99.90;;;;;;5058463;28;20162;-78
2024/01/03 05:10:14;;;;;;;2.47;0.50;;;8.40;99.90;;;;;;5042563;28;20033;-80
2024/01/03 05:12:39;;;;;;;2.47;0.52;;;8.40;99.90;;;;;;5057659;28;20044;-77
2024/01/03 05:15:06;;;;;;;3.70;0.50;;;8.20;99.90;;;;;;5041688;28;20025;-78
2024/01/03 05:17:32;;;;;;;2.90;0.60;;;8.10;99.90;;;;;;5041511;28;20033;-77
2024/01/03 05:19:58;;;;;;;3.78;0.50;;;7.90;99.90;;;;;;5041377;28;20222;-76
2024/01/03 05:22:23;;;;;;;2.63;0.85;;;8.00;99.90;;;;;;5042994;28;20021;-77
2024/01/03 05:24:49;;;;;;;5.18;0.65;;;8.20;99.90;;;;;;5042269;28;20030;-76
2024/01/03 05:27:15;;;;;;;5.97;0.75;;;8.10;99.90;;;;;;5041581;28;20028;-77
2024/01/03 05:29:41;;;;;;;3.03;0.60;;;8.20;99.90;;;;;;5040961;28;20033;-77
2024/01/03 05:32:07;;;;;;;4.22;1.00;;;8.00;99.90;;;;;;5042420;28;20045;-78
2024/01/03 05:34:33;;;;;;;1.83;0.45;;;7.90;99.90;;;;;;5042791;28;20028;-77
2024/01/03 05:36:58;;;;;;;2.97;0.70;;;7.80;99.90;;;;;;5041810;28;20029;-77
2024/01/03 05:39:24;;;;;;;3.60;0.40;;;7.80;99.90;;;;;;5041872;28;20025;-78
2024/01/03 05:41:50;;;;;;;3.03;0.60;;;7.90;99.90;;;;;;5041896;28;20021;-77
2024/01/03 05:44:16;;;;;;;4.50;0.70;;;7.80;99.90;;;;;;5046374;28;20300;-78
2024/01/03 05:46:42;;;;;;;2.90;0.70;;;7.90;99.90;;;;;;5061593;28;20095;-77
2024/01/03 05:49:08;;;;;;;5.25;1.13;;;7.80;99.90;;;;;;5061996;28;20037;-76
2024/01/03 05:51:34;;;;;;;3.70;0.60;;;8.00;99.90;;;;;;5046665;28;20041;-77
2024/01/03 05:54:00;;;;;;;8.68;1.65;;;8.40;99.90;;;;;;5046174;28;20097;-78
2024/01/03 05:56:27;;;;;;;3.85;0.80;;;8.50;99.90;;;;;;5046490;28;20017;-78
2024/01/03 05:58:52;;;;;;;3.75;0.63;;;8.50;99.90;;;;;;5046267;28;20025;-77
2024/01/03 06:01:18;;;;;;;3.28;0.45;;;8.80;99.90;;;;;;5048039;28;20048;-77
2024/01/03 06:03:44;;;;;;;3.13;0.60;;;8.90;99.90;;;;;;5066172;28;20063;-78
2024/01/03 06:06:10;;;;;;;4.45;0.60;;;9.00;99.90;;;;;;5066078;28;20086;-77
2024/01/03 06:08:36;;;;;;;5.68;0.65;;;9.20;99.90;;;;;;5065466;28;20029;-76
2024/01/03 06:11:02;;;;;;;4.53;0.60;;;9.30;99.90;;;;;;5053713;28;20201;-76
2024/01/03 06:13:28;;;;;;;3.58;0.43;;;9.30;99.90;;;;;;5045778;28;20029;-76
2024/01/03 06:15:54;;;;;;;5.13;0.60;;;9.40;99.90;;;;;;5045081;28;20232;-77
2024/01/03 06:18:21;;;;;;;5.40;0.47;;;9.40;99.90;;;;;;5044582;28;20281;-76
2024/01/03 06:20:47;;;;;;;3.65;0.77;;;9.50;99.90;;;;;;5045235;28;20247;-78
2024/01/03 06:23:13;;;;;;;2.25;0.50;;;9.50;99.90;;;;;;5044944;28;20657;-78
2024/01/03 06:25:39;;;;;;;3.15;0.60;;;9.50;99.90;;;;;;5045401;28;20021;-76
2024/01/03 06:28:05;;;;;;;2.83;0.47;;;9.60;99.90;;;;;;5045411;28;20092;-75
2024/01/03 06:30:31;;;;;;;4.78;0.50;;;9.60;99.90;;;;;;5045660;28;20033;-76
2024/01/03 06:32:56;;;;;;;3.45;0.65;;;9.50;99.90;;;;;;5060995;28;20033;-75
2024/01/03 06:35:22;;;;;;;4.03;0.68;;;9.50;99.90;;;;;;5045530;28;20079;-77
2024/01/03 06:37:48;;;;;;;2.28;0.43;;;9.50;99.90;;;;;;5045611;28;20053;-77
2024/01/03 06:40:14;;;;;;;2.92;0.60;;;9.30;99.90;;;;;;5044537;28;20066;-76
2024/01/03 06:42:40;;;;;;;4.80;0.60;;;9.40;99.90;;;;;;5043553;28;20030;-77
2024/01/03 06:45:06;;;;;;;2.95;0.55;;;9.30;99.90;;;;;;5044041;28;20037;-77
2024/01/03 06:47:32;;;;;;;3.50;0.40;;;9.30;99.90;;;;;;5043806;28;20057;-77
2024/01/03 06:49:58;;;;;;;4.78;0.77;;;9.20;99.90;;;;;;5044677;28;20049;-77
2024/01/03 06:52:24;;;;;;;1.95;0.35;;;9.00;99.90;;;;;;5044953;28;20021;-77
2024/01/03 06:54:50;;;;;;;6.35;1.02;;;8.80;99.90;;;;;;5043816;28;20021;-77
2024/01/03 06:57:16;;;;;;;4.28;0.65;;;8.70;99.90;;;;;;5044571;28;20197;-78
2024/01/03 06:59:42;;;;;;;4.10;0.60;;;8.50;99.90;;;;;;5044215;28;20025;-77
2024/01/03 07:02:08;;;;;;;2.38;0.45;;;8.40;99.90;;;;;;5052660;28;20020;-77
2024/01/03 07:04:34;;;;;;;5.40;0.80;;;8.20;99.90;;;;;;5047710;28;20043;-77
2024/01/03 07:07:00;;;;;;;5.40;0.93;;;8.00;99.90;;;;;;5047738;28;20025;-77
2024/01/03 07:09:26;;;;;;;6.13;1.33;;;7.90;99.90;;;;;;5047637;28;20067;-77
2024/01/03 07:11:53;;;;;;;5.68;1.10;;;7.80;99.90;;;;;;5047281;28;20052;-78
2024/01/03 07:14:27;;;;;;;6.63;1.98;;;7.80;99.90;;;;;;5047770;28;20028;-78
2024/01/03 07:16:55;;;;;;;8.00;1.85;;;7.60;99.90;;;;;;5036012;28;20197;-77
2024/01/03 07:19:21;;;;;;;10.73;2.15;;;7.50;99.90;;;;;;5044971;28;20037;-78
2024/01/03 07:21:46;;;;;;;9.43;1.58;;;7.40;99.90;;;;;;5044153;28;20315;-77
2024/01/03 07:24:12;;;;;;;5.70;1.40;;;7.40;99.90;;;;;;5044788;28;20037;-78
2024/01/03 07:26:37;;;;;;;6.45;1.42;;;7.30;99.90;;;;;;5044137;28;20132;-78
2024/01/03 07:29:03;;;;;;;5.88;0.70;;;7.40;99.90;;;;;;5043818;28;20067;-76
2024/01/03 07:31:29;;;;;;;4.88;1.00;;;7.30;99.90;;;;;;5044865;28;20040;-78
2024/01/03 07:33:54;;;;;;;3.15;0.70;;;7.70;99.90;;;;;;5044072;28;20040;-79
2024/01/03 07:36:20;;;;;;;4.68;0.70;;;7.90;99.90;;;;;;5044949;28;20089;-76
2024/01/03 07:38:46;;;;;;;3.67;0.70;;;8.20;99.90;;;;;;5043891;28;20041;-78
2024/01/03 07:41:16;;;;;;;4.15;0.85;;;8.70;99.90;;;;;;5026875;28;20060;-78
2024/01/03 07:43:42;;;;;;;3.38;0.55;;;8.70;99.90;;;;;;5059282;28;20106;-77
2024/01/03 07:46:07;;;;;;;4.57;0.60;;;8.90;99.90;;;;;;5042875;28;20061;-76
2024/01/03 07:48:33;;;;;;;5.15;0.80;;;9.10;99.90;;;;;;5043121;28;20259;-78
2024/01/03 07:50:59;;;;;;;2.97;0.60;;;9.20;99.90;;;;;;5043640;28;20029;-76
2024/01/03 07:53:24;;;;;;;3.53;0.90;;;9.20;99.90;;;;;;5060013;28;20033;-77
2024/01/03 07:55:50;;;;;;;2.53;0.47;;;9.20;99.90;;;;;;5043847;28;20033;-78
2024/01/03 07:58:16;;;;;;;4.20;0.45;;;9.10;99.90;;;;;;5043030;28;20216;-77
2024/01/03 08:00:41;;;;;;;4.50;0.73;;;9.20;99.90;;;;;;5043756;28;20036;-78
2024/01/03 08:03:07;;;;;;;3.22;0.40;;;9.20;99.90;;;;;;5060790;28;20036;-76
2024/01/03 08:05:32;;;;;;;3.03;0.60;;;9.30;99.90;;;;;;5047131;28;20029;-76
2024/01/03 08:07:58;;;;;;;2.05;0.60;;;9.50;99.90;;;;;;5043799;28;20280;-77
2024/01/03 08:10:24;;;;;;;4.93;0.50;;;9.60;99.90;;;;;;5028089;28;20073;-77
2024/01/03 08:12:49;;;;;;;2.72;0.47;;;9.60;99.90;;;;;;5042471;28;20048;-77
2024/01/03 08:15:15;;;;;;;2.10;0.50;;;9.60;99.90;;;;;;5042812;28;20029;-75
2024/01/03 08:17:41;;;;;;;3.40;0.60;;;9.80;99.90;;;;;;5042900;28;20037;-77
2024/01/03 08:20:08;;;;;;;2.17;0.40;;;9.80;99.90;;;;;;5059179;28;20026;-75
2024/01/03 08:22:34;;;;;;;3.40;0.45;;;9.90;99.90;;;;;;5056569;28;20307;-77
2024/01/03 08:25:03;;;;;;;3.08;0.85;;;10.10;99.90;;;;;;5063020;28;20092;-77
2024/01/03 08:27:31;;;;;;;2.22;0.30;;;10.20;99.90;;;;;;5063571;28;20017;-77
2024/01/03 08:29:57;;;;;;;2.97;0.40;;;10.30;99.90;;;;;;5045628;28;20311;-77
2024/01/03 08:32:32;;;;;;;5.53;1.10;;;10.40;99.90;;;;;;5062729;28;20292;-76
2024/01/03 08:34:59;;;;;;;3.13;0.63;;;10.40;99.90;;;;;;5062116;28;20032;-77
2024/01/03 08:37:24;;;;;;;3.72;0.80;;;10.50;99.90;;;;;;5058972;28;20063;-77
2024/01/03 08:39:50;;;;;;;3.15;0.60;;;10.60;99.90;;;;;;5042859;28;20026;-77
2024/01/03 08:42:16;;;;;;;3.72;0.63;;;10.80;99.90;;;;;;5043088;28;20079;-77
2024/01/03 08:44:41;;;;;;;1.73;0.52;;;10.80;99.90;;;;;;5042740;28;20040;-76
2024/01/03 08:47:07;;;;;;;4.22;0.50;;;10.90;99.90;;;;;;5043145;28;20053;-77
2024/01/03 08:49:33;;;;;;;2.80;0.50;;;10.80;99.90;;;;;;5058493;28;20061;-76
2024/01/03 08:51:59;;;;;;;2.92;0.50;;;10.80;99.90;;;;;;5058162;28;20057;-76
2024/01/03 08:54:26;;;;;;;3.50;0.63;;;10.60;99.90;;;;;;5043082;28;20057;-76
2024/01/03 08:56:51;;;;;;;2.85;0.47;;;10.50;99.90;;;;;;5041375;28;20116;-76
2024/01/03 08:59:17;;;;;;;2.65;0.50;;;10.40;99.90;;;;;;5043274;28;20296;-78
2024/01/03 09:01:43;;;;;;;3.65;0.60;;;10.30;99.90;;;;;;5046782;28;20087;-78
2024/01/03 09:04:18;;;;;;;2.97;0.70;;;10.20;99.90;;;;;;5063148;28;20039;-76
2024/01/03 09:06:44;;;;;;;2.33;0.57;;;10.20;99.90;;;;;;5042372;28;20025;-77
2024/01/03 09:09:09;;;;;;;4.95;0.85;;;10.30;99.90;;;;;;5048006;28;20375;-77
2024/01/03 09:11:36;;;;;;;1.92;0.38;;;10.50;99.90;;;;;;5049008;28;20315;-76
2024/01/03 09:14:02;;;;;;;2.53;0.40;;;10.70;99.90;;;;;;5051429;28;20021;-78
2024/01/03 09:16:30;;;;;;;3.92;0.60;;;10.80;99.90;;;;;;5051429;28;20245;-79
2024/01/03 09:18:59;;;;;;;3.00;0.40;;;10.80;99.90;;;;;;5057784;28;20204;-80
2024/01/03 09:21:26;;;;;;;;;;;10.90;99.90;;;;;;5063170;28;20021;-75
2024/01/03 09:23:52;;;;;;;0.93;0.22;;;10.90;99.90;;;;;;5057506;28;20188;-76
2024/01/03 09:26:22;;;;;;;3.45;0.60;;;10.90;99.90;;;;;;5034839;28;20033;-76
2024/01/03 09:28:48;;;;;;;2.35;0.40;;;10.90;99.90;;;;;;5053058;28;20076;-77
2024/01/03 09:31:15;;;;;;;4.53;0.57;;;10.90;99.90;;;;;;5057966;28;20033;-77
2024/01/03 09:33:40;;;;;;;1.40;0.63;;;10.90;99.90;;;;;;5052128;28;20029;-79
2024/01/03 09:36:15;;;;;;;2.15;0.30;;;10.90;99.90;;;;;;5051462;28;20066;-77
2024/01/03 09:38:41;;;;;;;3.05;0.60;;;10.90;99.90;;;;;;5046614;28;20033;-77
2024/01/03 09:41:12;;;;;;;3.17;0.38;;;10.70;99.90;;;;;;5041210;28;20029;-77
2024/01/03 09:43:42;;;;;;;1.83;0.30;;;10.70;99.90;;;;;;5040820;28;20068;-77
2024/01/03 09:46:12;;;;;;;2.58;0.30;;;10.70;99.90;;;;;;5042376;28;20045;-79
2024/01/03 09:48:41;;;;;;;1.42;0.28;;;10.80;99.90;;;;;;5057425;28;20231;-77
2024/01/03 09:51:10;;;;;;;3.80;0.93;;;10.90;99.90;;;;;;5042574;28;20025;-77
2024/01/03 09:53:36;;;;;;;2.22;0.28;;;10.90;99.90;;;;;;5041296;28;20029;-76
2024/01/03 09:56:02;;;;;;;1.98;0.50;;;10.90;99.90;;;;;;5042304;28;20041;-77
2024/01/03 09:58:33;;;;;;;2.92;0.20;;;10.90;99.90;;;;;;5041285;28;20020;-76
2024/01/03 10:00:58;;;;;;;1.60;0.28;;;10.80;99.90;;;;;;5040544;28;20034;-75
2024/01/03 10:03:24;;;;;;;3.05;0.40;;;10.80;99.90;;;;;;5060980;28;20041;-76
2024/01/03 10:06:10;;;;;;;2.25;0.40;;;10.90;99.90;;;;;;5061106;28;20119;-76
2024/01/03 10:08:36;;;;;;;4.22;0.20;;;10.90;99.90;;;;;;5062408;28;20040;-76
2024/01/03 10:11:19;;;;;;;2.50;0.30;;;11.00;99.90;;;;;;5061096;28;20037;-77
2024/01/03 10:13:45;;;;;;;2.50;0.50;;;11.00;99.90;;;;;;5060156;28;20033;-75
2024/01/03 10:16:11;;;;;;;3.25;0.70;;;11.00;99.90;;;;;;5042198;28;20021;-75
2024/01/03 10:18:37;;;;;;;4.00;0.40;;;11.00;99.90;;;;;;5041493;28;20097;-76
2024/01/03 10:21:13;;;;;;;1.40;0.40;;;10.90;99.90;;;;;;5042215;28;20308;-76
2024/01/03 10:23:39;;;;;;;2.33;0.38;;;11.00;99.90;;;;;;5044506;28;20065;-77
2024/01/03 10:26:04;;;;;;;1.98;0.50;;;10.90;99.90;;;;;;5048558;28;20090;-76
2024/01/03 10:28:30;;;;;;;2.53;0.50;;;10.90;99.90;;;;;;5059234;28;20334;-76
2024/01/03 10:30:57;;;;;;;2.05;0.60;;;11.10;99.90;;;;;;5063278;28;20025;-76
2024/01/03 10:33:23;;;;;;;1.98;0.75;;;11.10;99.90;;;;;;5044544;28;20026;-77
2024/01/03 10:35:49;;;;;;;4.32;1.00;;;11.00;99.90;;;;;;5060249;28;22612;-80
2024/01/03 10:38:16;;;;;;;1.67;0.40;;;11.10;99.90;;;;;;5044468;28;20274;-75
2024/01/03 10:40:41;;;;;;;2.90;0.57;;;11.10;99.90;;;;;;5044734;28;20060;-76
2024/01/03 10:43:11;;;;;;;1.30;0.40;;;11.10;99.90;;;;;;5044467;28;20040;-76
2024/01/03 10:45:37;;;;;;;3.33;0.50;;;11.10;99.90;;;;;;5045380;28;20025;-74
2024/01/03 10:48:03;;;;;;;5.00;0.57;;;11.10;99.90;;;;;;5044359;28;20025;-77
2024/01/03 10:50:29;;;;;;;3.80;0.80;;;11.10;99.90;;;;;;5045350;28;20041;-79
2024/01/03 10:52:59;;;;;;;3.92;0.40;;;11.10;99.90;;;;;;5061165;28;20021;-78
2024/01/03 10:55:37;;;;;;;2.10;0.43;;;11.20;99.90;;;;;;5063899;28;20388;-76
2024/01/03 10:58:12;;;;;;;3.72;0.50;;;11.50;99.90;;;;;;5060587;28;20282;-75
2024/01/03 11:01:00;;;;;;;3.92;0.47;;;11.70;99.90;;;;;;5043798;28;20087;-77
2024/01/03 11:03:42;;;;;;;2.25;0.55;;;11.70;99.90;;;;;;5063077;28;20033;-77
2024/01/03 11:06:29;;;;;;;2.97;0.57;;;11.80;99.90;;;;;;5065139;28;20087;-75
2024/01/03 11:08:57;;;;;;;1.42;0.30;;;11.90;99.90;;;;;;5044104;28;20255;-78
2024/01/03 11:11:39;;;;;;;2.60;0.30;;;12.20;99.90;;;;;;5045208;28;20076;-75
2024/01/03 11:14:31;;;;;;;0.85;0.30;;;12.10;99.90;;;;;;5048858;28;20315;-76
2024/01/03 11:16:57;;;;;;;2.58;0.30;;;12.10;99.90;;;;;;5062709;28;20048;-75
2024/01/03 11:19:27;;;;;;;2.80;0.30;;;12.10;99.90;;;;;;5063578;28;20037;-75
2024/01/03 11:21:53;;;;;;;1.92;0.30;;;12.10;99.90;;;;;;5062986;28;20021;-75
2024/01/03 11:24:18;;;;;;;2.05;0.30;;;12.40;99.90;;;;;;5050080;28;20109;-78
2024/01/03 11:26:53;;;;;;;3.22;0.40;;;12.70;99.20;;;;;;5043894;28;20028;-74
2024/01/03 11:29:48;;;;;;;2.85;0.50;;;12.90;98.60;;;;;;5059817;28;20033;-75
2024/01/03 11:32:35;;;;;;;2.17;0.47;;;12.90;99.20;;;;;;5044123;28;20029;-74
2024/01/03 11:35:02;;;;;;;0.95;0.30;;;12.60;99.40;;;;;;5042588;28;20052;-74
2024/01/03 11:37:30;;;;;;;1.98;0.45;;;12.80;99.10;;;;;;5044396;28;20037;-76
2024/01/03 11:39:57;;;;;;;2.38;0.40;;;13.40;98.30;;;;;;5042447;28;20025;-75
2024/01/03 11:42:28;;;;;;;1.55;0.28;;;14.20;96.60;;;;;;5044243;28;20057;-78
2024/01/03 11:45:15;;;;;;;2.03;0.40;;;14.50;95.60;;;;;;5044021;28;20111;-76
2024/01/03 11:47:49;;;;;;;1.92;0.38;;;14.90;93.90;;;;;;5043741;28;20190;-75
2024/01/03 11:50:16;;;;;;;2.17;0.40;;;15.20;93.80;;;;;;5046298;28;20335;-75
2024/01/03 11:52:47;;;;;;;2.30;0.30;;;15.30;93.00;;;;;;5055299;28;20048;-76
2024/01/03 11:55:16;;;;;;;1.75;0.32;;;15.40;92.60;;;;;;5049563;28;20021;-77
2024/01/03 11:57:48;;;;;;;3.45;0.52;;;14.90;92.60;;;;;;5043593;28;20033;-75
2024/01/03 12:00:16;;;;;;;0.85;0.30;;;15.00;92.70;;;;;;5044175;28;20100;-76
2024/01/03 12:02:55;;;;;;;2.80;0.55;;;15.20;92.00;;;;;;5056706;28;20017;-74
2024/01/03 12:05:21;;;;;;;2.22;0.50;;;15.00;92.40;;;;;;5062657;28;20031;-76
2024/01/03 12:07:48;;;;;;;1.13;0.30;;;14.50;92.90;;;;;;5063000;28;20024;-74
2024/01/03 12:10:15;;;;;;;2.60;0.20;;;14.90;92.40;;;;;;5057954;28;20083;-75
2024/01/03 12:12:43;;;;;;;3.03;0.35;;;14.50;92.30;;;;;;5043045;28;20037;-74
2024/01/03 12:15:18;;;;;;;1.97;0.30;;;13.90;93.30;;;;;;5043532;28;20333;-75
2024/01/03 12:17:44;;;;;;;1.45;0.30;;;13.60;94.00;;;;;;5041714;28;20068;-74
2024/01/03 12:20:15;;;;;;;2.25;0.40;;;13.70;94.00;;;;;;5058553;28;20254;-76
2024/01/03 12:22:41;;;;;;;3.22;0.30;;;13.60;94.20;;;;;;5042793;28;20021;-76
2024/01/03 12:25:15;;;;;;;2.35;0.43;;;13.40;95.30;;;;;;5058027;28;20036;-74
2024/01/03 12:27:41;;;;;;;3.20;0.50;;;13.40;96.00;;;;;;5056969;28;20033;-76
2024/01/03 12:30:15;;;;;;;1.80;0.40;;;13.20;96.90;;;;;;5058616;28;20326;-73
2024/01/03 12:32:41;;;;;;;2.58;0.47;;;12.80;96.40;;;;;;5041246;28;20343;-75
2024/01/03 12:35:08;;;;;;;3.30;0.55;;;12.80;96.50;;;;;;5043014;28;20052;-76
2024/01/03 12:37:34;;;;;;;3.08;0.50;;;13.10;95.70;;;;;;5042813;28;20029;-76
2024/01/03 12:39:59;;;;;;;1.30;0.30;;;13.00;96.60;;;;;;5042292;28;20037;-75
2024/01/03 12:42:25;;;;;;;1.67;0.50;;;12.80;97.00;;;;;;5042753;28;20060;-76
2024/01/03 12:44:51;;;;;;;3.45;0.45;;;12.50;96.70;;;;;;5042362;28;20021;-77
2024/01/03 12:47:17;;;;;;;1.70;0.40;;;12.40;97.20;;;;;;5041583;28;20044;-77
2024/01/03 12:49:42;;;;;;;2.05;0.35;;;12.90;97.30;;;;;;5042512;28;20037;-76
2024/01/03 12:52:09;;;;;;;2.00;0.40;;;13.50;95.30;;;;;;5057911;28;20299;-80
2024/01/03 12:54:36;;;;;;;2.38;0.40;;;14.20;94.70;;;;;;5062831;28;20040;-75